Nenana, AK

8:34 AM AKDT en Abril 25, 2018 (GMT -0800)
TMM Alaska | | Change Station
Aviso en curso: Wind Advisory

Alt 361 ft 64.56 °N, 149.10 °W | Updated 14 minutes ago

Clear
Despejado
38.2 ° F
Sensación térmica 38 ° F
N
3.0
Viento Variable Viento desde Este

Hoy
Alta -- | Baja -- ° F
--% Posibilidad de precipitaciones
Ayer
Alta -- | Baja -- ° F
Precip. -- pul
Presión 29.77 pul
Visibilidad 10.0 Millas
Nubes Despejado
Vientos helados 38 ° F
Punto de rocío 32 ° F
Humedad 79%
Precipitaciones 0.07 pul
Espesor de la nieve No disponible.
5:45 AM 10:04 PM
Gibosa creciente, 79% visible
METAR PANN 251553Z AUTO 08005KT 10SM CLR 03/01 A2974 RMK AO2 SLP079 T00280006 TSNO
Presión 29.77 pul
Visibilidad 10.0 Millas
Nubes Despejado
Vientos helados 38 ° F
Punto de rocío 32 ° F
Humedad 79%
Precipitaciones 0.07 pul
Espesor de la nieve No disponible.
5:45 AM 10:04 PM
Gibosa creciente, 79% visible
METAR PANN 251553Z AUTO 08005KT 10SM CLR 03/01 A2974 RMK AO2 SLP079 T00280006 TSNO

Get Your Daily Forecast Email!

Thanks for signing up!

Be on the lookout for a verification email in your inbox.

You'll start receiving severe weather alerts in your inbox..

×

10-Day Weather Forecast

Almanac

Astronomía

Apr. 25, 2018 Salida Puesta
Hora real
Crepúsculo civil
Crepúsculo náutico
Crepúsculo astronómico
Luna
Horas de luz
Horas de luz
Tomorrow will be .
, % of the Moon is Illuminated

Extremos de hoy

Máximos del estado Bajos del estado

Community

WunderPhotos

Category 6

Welcome to Category 6. This is the collective home for Weather Underground's featured writeups by Dr. Jeff Masters (right), Bob Henson (left), Chris Burt, and other regular contributors.

Nearby

Calidad del aire

  Calidad del aire Índice AQ Contaminante
Not available.

Grosos de nieve

Estación Profundido Altura

Actividad de terremotos

Ciudad Distance Mag. Tiempo y dato
Magnitud mínima muestra es 2,5.

Temperaturas de aguas costeras

Lugar Temperatura

Stations

Estaciones meteorológicas cercanas

Ubicación de la estación Temp. Vientos helados Punto de rocío Humedad Viento Precip. Alt Actualizado Tipo
                   

Watches & Warnings

Wind Advisory
Issued: 5:37 AM AKDT Apr. 25, 2018 – National Weather Service

... Wind Advisory remains in effect until 6 am akdt Thursday...

* location... mainly on the summits along the Elliott Highway.

* Winds... south to southeast gusting to 40 mph.

* Timing... strong gusty winds will persist into Thursday morning
before diminishing.

* Impacts... loose items may be blown around causing damage.
Travel conditions may become difficult.

Precautionary/preparedness actions...

A Wind Advisory means that strong winds are occurring or
expected. Travel may be difficult. Secure loose objects which may
be blown about by the wind.